Latest Weather Observations for Telfer

IDW60801

Issued at 3:33 pm WST Friday 9 December 2016 (issued every 30 minutes, with the page automatically refreshed every 10 minutes)

About weather observations | Map of weather stations | Latest weather observations for WA | Other Formats
Station Details ID: 013030 Name: TELFER AERO Lat: -21.71 Lon: 122.23 Height: 291.9 m
Data from the previous 72 hours. | See also: Recent months at Telfer
Date/Time
WST
Temp
°C
App
Temp
°C
Dew
Point
°C
Rel
Hum
%
Delta-T
°C
Wind Press
QNH
hPa
Press
MSL
hPa
Rain since
9am
mm
Dir  Spd
km/h
Gust
km/h
Spd
kts
Gust
kts
09/03:30pm 36.2 34.5 13.6 25 14.0 SE 15 30 8 16 1008.8 1006.4 0.2
09/03:00pm 36.1 33.8 14.1 26 13.7 ESE 19 30 10 16 1009.1 1006.7 0.2
09/02:30pm 36.2 33.9 14.2 26 13.7 ESE 19 32 10 17 1009.6 1007.1 0.2
09/02:00pm 35.7 33.3 13.8 27 13.6 SE 19 26 10 14 1009.9 1007.4 0.2
09/01:30pm 35.1 31.8 13.9 28 13.1 SE 24 35 13 19 1010.0 1007.5 0.2
09/01:00pm 35.5 32.3 14.2 28 13.3 ESE 24 37 13 20 1010.3 1007.8 0.2
09/12:30pm 36.2 33.4 15.3 28 13.3 SE 24 35 13 19 1010.5 1008.0 0.2
09/12:00pm 33.8 31.6 14.8 32 11.9 SE 20 30 11 16 1010.8 1008.3 0.2
09/11:30am 32.1 29.9 14.3 34 11.0 ESE 19 24 10 13 1011.3 1008.8 0.2
09/11:00am 30.9 29.4 14.1 36 10.3 SE 15 22 8 12 1011.6 1009.1 0.0
09/10:30am 29.8 27.3 14.0 38 9.6 SE 20 26 11 14 1012.0 1009.6 0.0
09/10:00am 29.7 26.0 12.6 35 10.2 ESE 24 32 13 17 1012.3 1009.9 0.0
09/09:30am 29.3 26.2 13.5 38 9.5 ESE 22 28 12 15 1012.5 1010.1 0.0
09/09:00am 29.1 25.8 12.9 37 9.7 ESE 22 30 12 16 1012.4 1010.0 1.0
09/08:30am 28.7 25.1 13.0 38 9.4 SE 24 32 13 17 1012.3 1009.9 1.0
09/08:00am 27.8 25.3 15.1 46 7.8 SE 22 28 12 15 1012.2 1009.8 1.0
09/07:30am 27.2 23.6 15.2 47 7.4 SSE 28 35 15 19 1011.9 1009.5 1.0
09/07:00am 27.1 24.3 16.4 52 6.7 SSE 26 32 14 17 1011.7 1009.3 1.0
09/06:30am 27.2 24.9 17.7 56 6.1 SSE 26 32 14 17 1011.5 1009.0 1.0
09/06:00am 27.2 25.5 18.2 58 5.8 SSE 24 32 13 17 1011.4 1008.9 1.0
09/05:30am 27.1 27.7 19.4 62 5.0 SSE 15 24 8 13 1011.0 1008.5 1.0
09/05:00am 26.5 28.9 20.1 68 4.2 SSE 7 9 4 5 1010.7 1008.2 1.0
09/04:30am 26.9 28.7 19.5 64 4.8 SSE 9 13 5 7 1010.4 1007.9 1.0
09/04:00am 27.4 27.0 18.9 59 5.5 S 19 24 10 13 1010.0 1007.5 1.0
09/03:30am 27.4 27.3 18.7 59 5.6 SW 17 20 9 11 1009.6 1007.1 1.0
09/03:00am 27.3 26.7 18.9 60 5.5 SW 20 26 11 14 1009.7 1007.2 1.0
09/02:30am 27.2 26.4 18.5 59 5.6 SW 20 24 11 13 1009.7 1007.2 1.0
09/02:00am 27.2 26.2 18.8 60 5.5 SW 22 28 12 15 1009.8 1007.3 1.0
09/01:30am 26.8 27.4 19.4 64 4.8 SW 15 20 8 11 1010.0 1007.5 1.0
09/01:00am 26.6 27.1 20.0 67 4.4 SW 17 22 9 12 1010.4 1007.9 1.0
09/12:30am 26.5 25.7 20.1 68 4.2 S 24 30 13 16 1010.9 1008.4 1.0
09/12:00am 26.6 26.3 20.4 69 4.1 S 22 28 12 15 1011.5 1009.0 1.0
 
Date/Time
WST
Temp
°C
App
Temp
°C
Dew
Point
°C
Rel
Hum
%
Delta-T
°C
Wind Press
QNH
hPa
Press
MSL
hPa
Rain since
9am
mm
Dir  Spd
km/h
Gust
km/h
Spd
kts
Gust
kts
08/11:30pm 26.6 27.8 20.7 70 3.9 SSE 15 19 8 10 1012.0 1009.6 1.0
08/11:00pm 26.6 27.4 20.7 70 3.9 SSE 17 19 9 10 1012.2 1009.8 1.0
08/10:30pm 25.9 26.7 20.7 73 3.5 SE 17 20 9 11 1012.3 1009.9 1.0
08/10:00pm 24.9 24.4 20.8 78 2.7 ESE 24 32 13 17 1012.6 1010.2 0.4
08/09:30pm 27.6 25.5 19.7 62 5.2 SE 30 37 16 20 1012.5 1010.1 0.2
08/09:00pm 27.3 27.4 19.9 64 4.9 SSE 19 26 10 14 1012.3 1009.9 0.2
08/08:30pm 27.7 26.6 18.7 58 5.8 ESE 22 37 12 20 1011.8 1009.4 0.2
08/08:00pm 30.6 30.3 18.3 47 8.0 E 17 20 9 11 1010.9 1008.4 0.0
08/07:30pm 32.4 30.6 15.4 36 10.7 ENE 19 30 10 16 1010.2 1007.7 0.0
08/07:00pm 33.7 32.1 16.1 34 11.2 ENE 19 24 10 13 1009.8 1007.3 0.0
08/06:30pm 35.2 35.5 14.5 29 12.9 NW 6 9 3 5 1008.8 1006.4 0.0
08/06:00pm 35.2 34.9 14.5 29 13.0 NW 9 13 5 7 1008.4 1005.9 0.0
08/05:30pm 35.3 35.1 14.6 29 13.0 NW 9 17 5 9 1008.0 1005.5 0.0
08/05:00pm 35.3 34.5 15.1 30 12.8 NW 13 19 7 10 1007.8 1005.3 0.0
08/04:30pm 35.1 32.7 15.4 30 12.5 WNW 22 28 12 15 1007.8 1005.3 0.0
08/04:00pm 36.2 35.1 14.2 26 13.8 ENE 13 19 7 10 1007.8 1005.3 0.0
08/03:30pm 36.2 35.7 14.8 28 13.5 ENE 11 17 6 9 1007.8 1005.3 0.0
08/03:00pm 36.8 35.3 15.3 28 13.7 E 17 22 9 12 1007.8 1005.3 0.0
08/02:30pm 36.9 35.6 14.8 26 14.0 SSE 15 24 8 13 1007.9 1005.4 0.0
08/02:00pm 36.6 35.0 15.1 27 13.6 SE 17 26 9 14 1008.3 1005.8 0.0
08/01:30pm 37.0 37.5 15.5 28 13.7 NE 7 24 4 13 1008.5 1006.0 0.0
08/01:00pm 35.9 34.9 14.5 27 13.4 SE 13 24 7 13 1008.8 1006.4 0.0
08/12:30pm 36.6 36.9 15.1 27 13.6 WNW 7 13 4 7 1009.1 1006.7 0.0
08/12:00pm 35.9 35.9 15.1 29 13.2 SW 9 17 5 9 1009.7 1007.2 0.0
08/11:30am 36.4 36.7 16.0 29 13.1 SSW 9 24 5 13 1010.1 1007.6 0.0
08/11:00am 35.3 34.3 15.6 31 12.5 S 15 22 8 12 1010.5 1008.0 0.0
08/10:30am 34.4 34.6 15.8 33 11.8 S 9 17 5 9 1010.9 1008.4 0.0
08/10:00am 34.0 33.5 15.9 33 11.5 SSE 13 19 7 10 1011.1 1008.6 0.0
08/09:30am 33.2 33.9 15.7 35 11.1 ESE 6 13 3 7 1011.6 1009.1 0.0
08/09:00am 32.9 33.1 15.8 35 10.8 S 9 19 5 10 1011.5 1009.0 0.0
08/08:30am 33.3 31.9 16.6 36 10.7 SE 19 24 10 13 1011.6 1009.1 0.0
08/08:00am 31.5 29.9 16.6 40 9.5 SSE 20 24 11 13 1011.5 1009.0 0.0
08/07:30am 30.3 29.6 17.4 46 8.3 SSE 17 20 9 11 1011.7 1009.3 0.0
08/07:00am 29.4 30.0 17.6 49 7.6 SSE 11 15 6 8 1011.7 1009.3 0.0
08/06:30am 28.5 30.6 17.1 50 7.2 NE 2 7 1 4 1011.5 1009.0 0.0
08/06:00am 28.1 29.4 17.6 53 6.7 ESE 7 11 4 6 1010.9 1008.4 0.0
08/05:30am 27.8 28.2 17.3 52 6.7 ESE 11 15 6 8 1010.5 1008.0 0.0
08/05:00am 28.1 27.8 17.3 52 6.9 SSE 15 20 8 11 1009.9 1007.4 0.0
08/04:30am 28.4 27.0 17.0 50 7.2 SSE 20 26 11 14 1009.4 1007.0 0.0
08/04:00am 28.1 27.1 17.6 53 6.7 NW 19 24 10 13 1008.4 1005.9 0.0
08/03:30am 28.1 26.4 17.3 52 6.9 NW 22 32 12 17 1008.2 1005.7 0.0
08/03:00am 28.1 28.7 17.6 53 6.7 N 11 15 6 8 1008.5 1006.0 0.0
08/02:30am 28.4 28.4 17.3 51 7.1 N 13 19 7 10 1008.7 1006.3 0.0
08/02:00am 28.9 29.5 16.8 48 7.7 N 9 13 5 7 1009.1 1006.7 0.0
08/01:30am 28.8 29.9 17.0 49 7.5 N 7 11 4 6 1008.8 1006.4 0.0
08/01:00am 28.7 29.0 16.9 48 7.5 NNW 11 17 6 9 1008.6 1006.2 0.0
08/12:30am 28.7 29.8 17.2 49 7.3 NNW 7 9 4 5 1009.2 1006.8 0.0
08/12:00am 28.6 29.0 17.2 50 7.3 NW 11 13 6 7 1009.9 1007.4 0.0
 
Date/Time
WST
Temp
°C
App
Temp
°C
Dew
Point
°C
Rel
Hum
%
Delta-T
°C
Wind Press
QNH
hPa
Press
MSL
hPa
Rain since
9am
mm
Dir  Spd
km/h
Gust
km/h
Spd
kts
Gust
kts
07/11:30pm 28.8 30.6 17.3 49 7.3 NW 4 9 2 5 1010.5 1008.0 0.0
07/11:00pm 29.1 30.5 17.3 49 7.5 N 6 9 3 5 1010.9 1008.4 0.0
07/10:30pm 29.0 31.7 17.8 50 7.2 CALM 0 2 0 1 1011.4 1008.9 0.0
07/10:00pm 29.3 30.8 18.1 51 7.2 ESE 7 9 4 5 1011.6 1009.1 0.0
07/09:30pm 30.1 31.0 17.5 46 8.1 SE 9 11 5 6 1011.4 1008.9 0.0
07/09:00pm 30.3 31.4 17.0 44 8.5 SSW 7 11 4 6 1011.4 1008.9 0.0
07/08:30pm 30.4 31.2 16.4 43 8.9 SE 7 9 4 5 1011.5 1009.0 0.0
07/08:00pm 30.6 31.7 17.0 44 8.7 ENE 7 9 4 5 1011.3 1008.8 0.0
07/07:30pm 31.0 32.8 18.4 47 8.2 SSE 6 7 3 4 1011.1 1008.6 0.0
07/07:00pm 31.4 34.1 17.7 44 8.9 CALM 0 0 0 0 1010.8 1008.3 0.0
07/06:30pm 32.0 33.4 16.3 39 10.0 NNW 4 6 2 3 1010.6 1008.1 0.0
07/06:00pm 32.2 32.9 16.1 38 10.2 WNW 7 9 4 5 1010.4 1007.9 0.0
07/05:30pm 32.4 33.0 15.8 36 10.5 W 7 13 4 7 1010.3 1007.8 0.0
07/05:00pm 32.3 33.4 16.6 39 10.0 WNW 6 9 3 5 1010.1 1007.6 0.0
07/04:30pm 32.4 32.8 16.3 38 10.2 WNW 9 13 5 7 1010.1 1007.6 0.0
07/04:00pm 32.3 33.2 16.2 38 10.2 NNW 6 9 3 5 1010.2 1007.7 0.0
07/03:30pm 32.2 33.5 16.1 38 10.2 NNW 4 13 2 7 1010.4 1007.9 0.0
07/03:00pm 32.1 32.9 16.4 39 10.0 NNW 7 11 4 6 1010.5 1008.0 0.0
07/02:30pm 31.7 32.0 16.0 38 9.9 NE 9 15 5 8 1010.6 1008.1 0.0
07/02:00pm 31.5 32.5 16.3 40 9.6 NNW 6 11 3 6 1010.9 1008.4 0.0
07/01:30pm 31.3 31.9 16.9 42 9.2 WNW 9 17 5 9 1011.4 1008.9 0.0
07/01:00pm 31.3 31.0 16.5 41 9.4 WNW 13 20 7 11 1011.9 1009.5 0.0
07/12:30pm 31.7 30.4 16.8 40 9.5 WNW 19 28 10 15 1012.1 1009.7 0.0
07/12:00pm 31.6 30.1 16.4 40 9.7 W 19 24 10 13 1012.2 1009.8 0.0
07/11:30am 31.0 29.6 16.6 42 9.2 WNW 19 26 10 14 1012.4 1010.0 0.0
07/11:00am 30.8 29.7 17.8 45 8.4 W 20 28 11 15 1012.7 1010.3 0.0
07/10:30am 30.6 29.5 17.7 46 8.3 WNW 20 28 11 15 1012.9 1010.5 0.0
07/10:00am 30.5 29.6 18.2 47 8.0 WNW 20 26 11 14 1013.0 1010.6 0.0
07/09:30am 30.6 30.1 17.7 46 8.3 W 17 20 9 11 1012.9 1010.5 0.0
07/09:00am 30.3 29.6 17.4 46 8.3 WSW 17 22 9 12 1012.8 1010.4 0.0
07/08:30am 29.5 30.1 18.6 52 7.1 WNW 13 17 7 9 1012.6 1010.2 0.0
07/08:00am 28.8 29.9 19.7 58 6.0 WNW 13 17 7 9 1012.5 1010.1 0.0
07/07:30am 28.0 29.8 19.5 60 5.6 NW 9 13 5 7 1012.2 1009.8 0.0
07/07:00am 27.6 29.5 19.7 62 5.2 NW 9 11 5 6 1012.2 1009.8 0.0
07/06:30am 27.4 29.6 19.5 62 5.2 WNW 7 13 4 7 1012.0 1009.6 0.0
07/06:00am 27.1 29.1 20.0 65 4.7 WSW 9 13 5 7 1011.5 1009.0 0.0
07/05:30am 27.1 29.1 20.0 65 4.7 WSW 9 15 5 8 1011.1 1008.6 0.0
07/05:00am 27.1 28.7 20.0 65 4.7 WSW 11 15 6 8 1010.5 1008.0 0.0
07/04:30am 27.1 28.8 20.2 66 4.6 W 11 13 6 7 1010.4 1007.9 0.0
07/04:00am 27.0 30.0 21.3 71 3.8 W 7 9 4 5 1010.3 1007.8 0.0
07/03:30am 27.4 29.9 21.0 68 4.3 NW 9 11 5 6 1010.3 1007.8 0.0
07/03:00am 27.4 29.2 21.2 69 4.2 WNW 13 15 7 8 1010.2 1007.7 0.0
07/02:30am 28.0 30.2 20.3 63 5.1 NNW 9 11 5 6 1010.2 1007.7 0.0
07/02:00am 28.3 30.6 20.6 63 5.1 W 9 13 5 7 1010.3 1007.8 0.0
07/01:30am 28.5 30.6 20.2 60 5.5 WSW 9 13 5 7 1010.1 1007.6 0.0
07/01:00am 28.5 30.9 20.0 60 5.6 NW 7 9 4 5 1010.3 1007.8 0.0
07/12:30am 28.7 30.3 19.9 59 5.8 WNW 11 13 6 7 1010.3 1007.8 0.0
07/12:00am 28.9 29.7 19.8 58 6.0 WNW 15 20 8 11 1010.6 1008.1 0.0
 
Date/Time
WST
Temp
°C
App
Temp
°C
Dew
Point
°C
Rel
Hum
%
Delta-T
°C
Wind Press
QNH
hPa
Press
MSL
hPa
Rain since
9am
mm
Dir  Spd
km/h
Gust
km/h
Spd
kts
Gust
kts
06/11:30pm 29.0 28.8 19.3 55 6.4 WNW 19 22 10 12 1010.6 1008.1 0.0
06/11:00pm 29.4 28.8 18.5 52 7.1 NW 19 30 10 16 1010.9 1008.4 0.0
06/10:30pm 29.6 29.5 17.8 49 7.6 NW 15 20 8 11 1011.3 1008.8 0.0
06/10:00pm 28.7 29.9 18.2 53 6.8 NW 9 13 5 7 1011.5 1009.0 0.0
06/09:30pm 28.9 30.2 18.4 53 6.8 NW 9 13 5 7 1011.6 1009.1 0.0
06/09:00pm 28.8 29.3 18.3 53 6.8 NW 13 15 7 8 1011.5 1009.0 0.0
06/08:30pm 29.3 29.6 17.8 50 7.4 WNW 13 13 7 7 1011.5 1009.0 0.0
06/08:00pm 29.3 28.4 17.8 50 7.4 WNW 19 24 10 13 1011.4 1008.9 0.0
06/07:30pm 29.4 29.5 20.0 57 6.2 WNW 19 24 10 13 1011.2 1008.7 0.0
06/07:00pm 31.9 30.7 17.4 42 9.4 NNW 20 30 11 16 1010.8 1008.3 0.0
06/06:30pm 32.4 30.2 17.8 41 9.5 N 26 35 14 19 1010.4 1007.9 0.0
06/06:00pm 32.9 30.9 17.5 39 10.0 N 24 37 13 20 1009.8 1007.3 0.0
06/05:30pm 34.5 33.8 15.4 32 12.1 N 13 20 7 11 1009.0 1006.6 0.0
06/05:00pm 34.7 33.3 15.6 32 12.1 N 17 28 9 15 1008.8 1006.4 0.0
06/04:30pm 35.0 33.3 15.8 31 12.2 N 19 30 10 16 1008.4 1005.9 0.0
06/04:00pm 35.1 34.0 16.4 32 12.0 N 17 26 9 14 1008.3 1005.8 0.0

Other Formats:

Comma delimited format used in spreadsheet applications
http://www.bom.gov.au/fwo/IDW60801/IDW60801.94319.axf

JavaScript Object Notation format (JSON) in row-major order
http://www.bom.gov.au/fwo/IDW60801/IDW60801.94319.json